2014 Gore-Tex Grand Traverse

Saturday, March 29, 2014 12:00 AM (GMT-6) - Final results

Race info
Sport: Ski mountaineering
Location: Crested Butte, CO, United States
Start type: Mass start
Racers: 55
Timed on: iPad
Timed with: Webscorer PRO 1.6
Updated: Tuesday, April 1, 2014 9:38 AM (GMT-6)

Contact organizer

Use this form to send an email to the organizer.

Your name
Your email address
Confirm email address
Message to organizer
Send

2014 Gore-Tex Grand Traverse

Place Bib Racer name Affiliation Category Finish time
174Boehm-ThompsonDynafit M-26/35 7:59:15.0--100%39.23%39.16%
2155Iverson-JohnsonMountain Majesties M-26/35 9:18:52.2+1:19:37.2+16.61%85.75%29.14%29.06%
3118Newton-PletcherStrafe M-26/35 9:22:17.0+1:23:02.0+17.33%85.23%28.70%28.62%
4196Kadlec-Sterling3rd Time a Charm? M-26/35 10:07:29.0+2:08:14.0+26.76%78.89%22.97%22.89%
5183Koons-MalloryTeam R6P M-26/35 10:14:31.9+2:15:16.9+28.23%77.99%22.08%21.99%
675Abramczyk-BarkerPowered by Pasteries M-26/35 10:19:58.6+2:20:43.6+29.36%77.30%21.39%21.30%
740Edgerton-MoszynskiWolfpack M-26/35 10:23:14.3+2:23:59.3+30.04%76.90%20.97%20.89%
8163Gould-VenzaraPine Needle Mountaineering M-26/35 10:29:17.3+2:30:02.3+31.31%76.16%20.21%20.12%
918Corrigan-RobinsonThe Tom & Duncan Show M-26/35 10:38:52.6+2:39:37.6+33.31%75.01%18.99%18.90%
1036Stover-TiernanStover Tiernan M-26/35 10:53:33.8+2:54:18.8+36.37%73.33%17.13%17.04%
1124Egedy-PageFlock of Salmon M-26/35 10:57:52.1+2:58:37.1+37.27%72.85%16.58%16.49%
1226Lund-OzmentTeam Cougar Snack M-26/35 11:24:12.2+3:24:57.2+42.77%70.04%13.24%13.15%
13200Hunt-SwiftGO To Guide M-26/35 11:25:50.4+3:26:35.4+43.11%69.88%13.04%12.94%
14100Boyles-MeansChasing Randy M-26/35 11:26:33.4+3:27:18.4+43.26%69.80%12.95%12.85%
15135Cooper-ThaemertLong Haul Truckers M-26/35 12:06:34.0+4:07:19.0+51.60%65.96%7.87%7.77%
16109Holton-LubyDisney on Ice M-26/35 12:16:54.9+4:17:39.9+53.76%65.03%6.56%6.46%
1761Addabbo-PeramboAdaptive M-26/35 12:17:06.4+4:17:51.4+53.80%65.02%6.54%6.43%
18205Holder-PaytonExpedient Ramblers M-26/35 12:21:00.9+4:21:45.9+54.62%64.67%6.04%5.94%
19123Nitti-SoderquistSexual Chocolate M-26/35 12:33:38.6+4:34:23.6+57.25%63.59%4.44%4.33%
20160Duval-DuvalTeam Odale M-26/35 12:52:45.7+4:53:30.7+61.24%62.02%2.02%1.91%
219Burgtorf-MadsenThe Garage M-26/35 12:54:01.9+4:54:46.9+61.51%61.92%1.85%1.74%
2284Blackwell-VandalSandy Toe Box M-26/35 13:07:46.5+5:08:31.5+64.38%60.84%0.11%0.00%
23147Simoens-Van HornI'd rather be on a Split! M-26/35 13:09:41.8+5:10:26.8+64.78%60.69%-0.13%-0.24%
2483Beezley-BeezleyCold Ass Honkies M-26/35 13:15:40.2+5:16:25.2+66.02%60.23%-0.89%-1.00%
25204Hayes-ThompsonFront Strangers M-26/35 13:25:34.9+5:26:19.9+68.09%59.49%-2.15%-2.26%
2677Arena-NallyFart Squadron M-26/35 13:44:37.3+5:45:22.3+72.07%58.12%-4.56%-4.68%
276Jones-RockPowder7.com M-26/35 13:59:58.3+6:00:43.3+75.27%57.06%-6.51%-6.63%
28116Raevsky-RaevskyThe World is Flatulent M-26/35 14:15:08.7+6:15:53.7+78.43%56.04%-8.43%-8.55%
29144Boaeuf-DeMuthRather be Drinking M-26/35 14:29:08.4+6:29:53.4+81.35%55.14%-10.20%-10.33%
3060Rowan-TuckerLife Turns Me On! M-26/35 14:47:20.6+6:48:05.6+85.15%54.01%-12.51%-12.64%
3114Baker-ConnellyLab Nations M-26/35 15:00:30.0+7:01:15.0+87.90%53.22%-14.18%-14.31%
3297Bigart-PeacockTeam Dewly M-26/35 15:06:36.7+7:07:21.7+89.17%52.86%-14.96%-15.09%
33184Gardner-GardnerIron Cobra M-26/35 15:11:00.1+7:11:45.1+90.09%52.61%-15.51%-15.64%
34142Glennon-GuerraWet Bandits M-26/35 15:12:47.5+7:13:32.5+90.46%52.50%-15.74%-15.87%
35170Kopelove-ThrelkeldThrelkeld-Kopelove M-26/35 15:48:57.3+7:49:42.3+98.01%50.50%-20.33%-20.46%
36201Higgins-MelchildThe Jordan's M-26/35 15:50:37.3+7:51:22.3+98.36%50.41%-20.54%-20.67%
3720Armano-CrollBig Boys on Small Skis M-26/35 15:58:03.8+7:58:48.8+99.91%50.02%-21.48%-21.62%
38140Beggs-GriffinSnow Ginger M-26/35 16:06:03.2+8:06:48.2+101.58%49.61%-22.49%-22.63%
39191Ryan-ShepherdBearded Anti-social Scientist Guys M-26/35 16:22:46.1+8:23:31.1+105.06%48.77%-24.61%-24.75%
40136Raevsky-RushtonUncle Ben and Sam M-26/35 16:36:05.2+8:36:50.2+107.84%48.11%-26.30%-26.44%
4164Bishop-LeeFor the Green Wolf M-26/35 16:38:50.0+8:39:35.0+108.42%47.98%-26.65%-26.79%
42122Evans-JonesGolden Buccaneers M-26/35 17:09:51.3+9:10:36.3+114.89%46.54%-30.58%-30.73%
43127Pfeiffer-TommeyFirst Attempt M-26/35 17:31:24.0+9:32:09.0+119.38%45.58%-33.31%-33.46%
-62Tracy-ZuidwedTeam Ramrod M-26/35 DNF-----
-65Beltchenko-MazaikaGimme a Raise M-26/35 DNF-----
-85Krcmarik-LewisLet's go skiing M-26/35 DNF-----
-120Anderson-BronskiTeam Panderson M-26/35 DNF-----
-128Hannah-ShermanTeam Brew-Ski M-26/35 DNF-----
-178Jennings-MccashFun Meter M-26/35 DNF-----
-189Edmiston-StenclikCripple Creek Backcountry M-26/35 DNF-----
-208Glaubman-PorrecaBackcountry.com M-26/35 DNF-----
-211Arnold-MerlinCAMP USA M-26/35 DNF-----
-215Jacobson-RobinsonJacobson-Robinson M-26/35 DNF-----
-95Bell-Dyson5am Shadow M-26/35 DSQ-----
-206Hunter Rubingh-McFarrenStraight to Escobar M-26/35 DSQ-----